createdAt,value
2019-01-13T00:00:21.965Z,91.28
2019-01-13T00:02:48.041Z,91.40
2019-01-13T00:05:14.097Z,91.60
2019-01-13T00:07:40.522Z,91.61
2019-01-13T00:10:06.795Z,91.60
2019-01-13T00:12:35.647Z,91.63
2019-01-13T00:15:02.922Z,91.61
2019-01-13T00:17:28.880Z,92.18
2019-01-13T00:19:54.858Z,91.94
2019-01-13T00:22:20.880Z,91.53
2019-01-13T00:24:46.864Z,91.36
2019-01-13T00:27:13.120Z,91.16
2019-01-13T00:29:42.098Z,91.07
2019-01-13T00:32:08.136Z,90.98
2019-01-13T00:34:34.290Z,90.88
2019-01-13T00:37:00.319Z,90.86
2019-01-13T00:39:26.266Z,90.96
2019-01-13T00:41:52.219Z,90.98
2019-01-13T00:44:18.916Z,91.11
2019-01-13T00:46:47.067Z,91.04
2019-01-13T00:49:14.425Z,91.06
2019-01-13T00:51:40.404Z,91.16
2019-01-13T00:54:06.384Z,91.25
2019-01-13T00:56:32.343Z,91.21
2019-01-13T00:58:58.393Z,91.11
2019-01-13T01:01:24.372Z,90.99
2019-01-13T01:03:50.560Z,90.89
2019-01-13T01:06:16.660Z,90.95
2019-01-13T01:08:43.117Z,91.03
2019-01-13T01:11:09.082Z,91.01
2019-01-13T01:13:35.270Z,90.98
2019-01-13T01:16:01.222Z,90.86
2019-01-13T01:18:27.321Z,91.17
2019-01-13T01:20:53.370Z,91.35
2019-01-13T01:23:19.547Z,90.79
2019-01-13T01:25:46.423Z,90.54
2019-01-13T01:28:12.445Z,90.39
2019-01-13T01:30:38.424Z,90.30
2019-01-13T01:33:04.681Z,90.17
2019-01-13T01:35:32.104Z,90.07
2019-01-13T01:37:58.123Z,89.97
2019-01-13T01:40:24.376Z,89.95
2019-01-13T01:42:50.397Z,89.90
2019-01-13T01:45:18.275Z,89.77
2019-01-13T01:47:44.331Z,89.72
2019-01-13T01:50:11.725Z,89.61
2019-01-13T01:52:37.991Z,89.44
2019-01-13T01:55:06.855Z,89.44
2019-01-13T01:57:32.854Z,89.46
2019-01-13T01:59:58.838Z,89.40
2019-01-13T02:02:24.813Z,89.49
2019-01-13T02:04:51.227Z,89.58
2019-01-13T02:07:18.789Z,89.53
2019-01-13T02:09:44.755Z,89.54
2019-01-13T02:12:11.072Z,89.54
2019-01-13T02:14:37.052Z,89.75
2019-01-13T02:17:03.012Z,89.85
2019-01-13T02:19:30.907Z,90.00
2019-01-13T02:21:56.947Z,90.06
2019-01-13T02:24:23.209Z,90.16
2019-01-13T02:26:50.326Z,90.25
2019-01-13T02:29:16.283Z,90.18
2019-01-13T02:31:42.242Z,90.13
2019-01-13T02:34:08.346Z,90.00
2019-01-13T02:36:34.925Z,90.03
2019-01-13T02:39:00.902Z,89.93
2019-01-13T02:41:27.405Z,89.93
2019-01-13T02:43:53.377Z,89.99
2019-01-13T02:46:19.329Z,90.04
2019-01-13T02:48:45.972Z,89.98
2019-01-13T02:51:12.071Z,89.95
2019-01-13T02:53:40.466Z,90.01
2019-01-13T02:56:06.505Z,89.98
2019-01-13T02:58:33.150Z,89.95
2019-01-13T03:01:01.063Z,89.98
2019-01-13T03:03:27.255Z,89.93
2019-01-13T03:05:53.217Z,89.94
2019-01-13T03:08:19.187Z,89.99
2019-01-13T03:10:45.217Z,89.93
2019-01-13T03:13:11.240Z,89.98
2019-01-13T03:15:37.195Z,89.91
2019-01-13T03:18:03.200Z,89.89
2019-01-13T03:20:29.151Z,89.90
2019-01-13T03:22:55.971Z,89.89
2019-01-13T03:25:23.063Z,89.94
2019-01-13T03:27:49.124Z,89.98
2019-01-13T03:30:20.000Z,89.98
2019-01-13T03:32:46.027Z,89.98
2019-01-13T03:35:12.811Z,90.16
2019-01-13T03:37:38.829Z,90.49
2019-01-13T03:40:08.641Z,90.60
2019-01-13T03:42:35.092Z,90.67
2019-01-13T03:45:01.049Z,90.73
2019-01-13T03:47:27.067Z,90.86
2019-01-13T03:49:53.017Z,90.73
2019-01-13T03:52:18.984Z,90.64
2019-01-13T03:54:45.103Z,90.55
2019-01-13T03:57:11.406Z,90.48
2019-01-13T03:59:37.655Z,90.40
2019-01-13T04:02:03.851Z,90.30
2019-01-13T04:04:29.816Z,90.23
2019-01-13T04:06:55.766Z,90.26
2019-01-13T04:09:21.764Z,90.45
2019-01-13T04:11:48.748Z,90.63
2019-01-13T04:14:16.704Z,90.65
2019-01-13T04:16:42.939Z,90.76
2019-01-13T04:19:08.898Z,90.85
2019-01-13T04:21:35.507Z,90.93
2019-01-13T04:24:01.490Z,91.02
2019-01-13T04:26:27.514Z,91.06
2019-01-13T04:28:53.584Z,91.11
2019-01-13T04:31:26.330Z,91.23
2019-01-13T04:33:47.439Z,91.23
2019-01-13T04:36:14.315Z,91.16
2019-01-13T04:38:40.348Z,91.18
2019-01-13T04:41:08.224Z,91.11
2019-01-13T04:43:34.156Z,91.07
2019-01-13T04:46:00.486Z,90.93
2019-01-13T04:48:26.433Z,90.83
2019-01-13T04:50:53.215Z,90.82
2019-01-13T04:53:19.470Z,90.81
2019-01-13T04:55:45.405Z,90.77
2019-01-13T04:58:11.378Z,90.69
2019-01-13T05:00:37.415Z,90.42
2019-01-13T05:03:03.860Z,90.42
2019-01-13T05:05:30.107Z,90.86
2019-01-13T05:07:58.726Z,90.97
2019-01-13T05:10:24.671Z,91.18
2019-01-13T05:12:51.119Z,91.33
2019-01-13T05:15:17.428Z,91.37
2019-01-13T05:17:43.694Z,91.44
2019-01-13T05:20:11.836Z,91.44
2019-01-13T05:22:38.756Z,91.46
2019-01-13T05:25:05.834Z,91.54
2019-01-13T05:27:32.848Z,91.45
2019-01-13T05:29:58.822Z,91.28
2019-01-13T05:32:25.335Z,91.07
2019-01-13T05:34:51.280Z,91.07
2019-01-13T05:37:18.271Z,91.14
2019-01-13T05:39:45.188Z,91.14
2019-01-13T05:42:12.049Z,91.37
2019-01-13T05:44:38.044Z,91.60
2019-01-13T05:47:04.071Z,91.78
2019-01-13T05:49:30.053Z,91.85
2019-01-13T05:51:56.052Z,92.00
2019-01-13T05:54:21.999Z,92.16
2019-01-13T05:56:47.932Z,92.14
2019-01-13T05:59:13.931Z,92.24
2019-01-13T06:01:39.881Z,92.18
2019-01-13T06:04:05.828Z,92.14
2019-01-13T06:06:32.156Z,92.21
2019-01-13T06:08:58.088Z,92.36
2019-01-13T06:11:24.723Z,92.34
2019-01-13T06:13:50.701Z,92.33
2019-01-13T06:16:16.681Z,92.31
2019-01-13T06:18:42.649Z,92.10
2019-01-13T06:21:08.662Z,92.10
2019-01-13T06:23:35.822Z,92.36
2019-01-13T06:26:01.798Z,92.41
2019-01-13T06:28:27.983Z,92.54
2019-01-13T06:30:53.924Z,92.66
2019-01-13T06:33:19.870Z,92.71
2019-01-13T06:35:45.846Z,92.68
2019-01-13T06:38:11.824Z,92.66
2019-01-13T06:40:37.890Z,92.60
2019-01-13T06:43:03.885Z,92.68
2019-01-13T06:45:29.836Z,92.71
2019-01-13T06:47:57.116Z,92.67
2019-01-13T06:50:23.267Z,92.72
2019-01-13T06:52:49.528Z,92.79
2019-01-13T06:55:16.565Z,92.91
2019-01-13T06:57:42.875Z,92.91
2019-01-13T07:00:18.240Z,92.92
2019-01-13T07:02:44.253Z,92.89
2019-01-13T07:05:10.490Z,92.82
2019-01-13T07:07:37.580Z,92.82
2019-01-13T07:10:09.225Z,92.84
2019-01-13T07:12:35.242Z,92.79
2019-01-13T07:15:01.198Z,92.80
2019-01-13T07:17:27.439Z,92.84
2019-01-13T07:19:53.465Z,93.18
2019-01-13T07:22:20.685Z,93.29
2019-01-13T07:24:46.637Z,92.89
2019-01-13T07:27:12.616Z,92.67
2019-01-13T07:29:38.560Z,92.83
2019-01-13T07:32:10.772Z,92.87
2019-01-13T07:34:32.872Z,92.93
2019-01-13T07:36:58.813Z,92.82
2019-01-13T07:39:25.072Z,92.90
2019-01-13T07:41:51.186Z,92.59
2019-01-13T07:44:17.598Z,92.03
2019-01-13T07:46:43.683Z,91.80
2019-01-13T07:49:10.060Z,91.73
2019-01-13T07:51:36.003Z,91.73
2019-01-13T07:54:01.940Z,91.57
2019-01-13T07:56:28.720Z,91.60
2019-01-13T07:58:55.210Z,91.42
2019-01-13T08:01:21.257Z,91.44
2019-01-13T08:03:47.339Z,91.05
2019-01-13T08:06:13.276Z,90.87
2019-01-13T08:08:39.226Z,90.74
2019-01-13T08:11:05.216Z,90.63
2019-01-13T08:13:31.169Z,90.60
2019-01-13T08:15:57.129Z,90.69
2019-01-13T08:18:23.123Z,90.61
2019-01-13T08:20:49.077Z,90.44
2019-01-13T08:23:15.021Z,90.29
2019-01-13T08:25:41.011Z,90.21
2019-01-13T08:28:06.974Z,90.04
2019-01-13T08:30:33.024Z,89.98
2019-01-13T08:32:59.109Z,89.51
2019-01-13T08:35:25.163Z,89.47
2019-01-13T08:37:51.418Z,89.37
2019-01-13T08:40:19.074Z,89.30
2019-01-13T08:42:46.576Z,89.27
2019-01-13T08:45:12.857Z,89.33
2019-01-13T08:47:39.279Z,89.18
2019-01-13T08:50:09.048Z,88.88
2019-01-13T08:52:35.217Z,88.96
2019-01-13T08:55:01.290Z,88.38
2019-01-13T08:57:27.520Z,87.95
2019-01-13T08:59:53.467Z,87.87
2019-01-13T09:02:19.584Z,87.91
2019-01-13T09:04:45.540Z,87.58
2019-01-13T09:07:11.478Z,86.91
2019-01-13T09:09:37.564Z,86.64
2019-01-13T09:12:03.728Z,86.42
2019-01-13T09:14:30.173Z,86.22
2019-01-13T09:16:56.293Z,86.35
2019-01-13T09:19:24.170Z,86.59
2019-01-13T09:21:51.129Z,86.43
2019-01-13T09:24:17.135Z,86.29
2019-01-13T09:26:43.090Z,85.87
2019-01-13T09:29:09.035Z,85.58
2019-01-13T09:31:37.168Z,84.92
2019-01-13T09:34:04.019Z,84.88
2019-01-13T09:36:30.458Z,85.08
2019-01-13T09:38:57.156Z,84.54
2019-01-13T09:41:23.102Z,84.04
2019-01-13T09:43:49.757Z,83.73
2019-01-13T09:46:15.801Z,83.83
2019-01-13T09:48:42.227Z,84.23
2019-01-13T09:51:08.599Z,84.05
2019-01-13T09:53:34.578Z,83.94
2019-01-13T09:56:01.032Z,84.07
2019-01-13T09:58:27.077Z,84.50
2019-01-13T10:00:53.364Z,85.26
2019-01-13T10:03:19.526Z,85.49
2019-01-13T10:05:45.578Z,85.70
2019-01-13T10:08:11.947Z,86.02
2019-01-13T10:10:37.995Z,86.18
2019-01-13T10:13:05.849Z,86.38
2019-01-13T10:15:32.244Z,86.09
2019-01-13T10:17:58.403Z,86.25
2019-01-13T10:20:24.390Z,86.06
2019-01-13T10:22:50.965Z,85.80
2019-01-13T10:25:17.003Z,85.92
2019-01-13T10:27:43.019Z,85.30
2019-01-13T10:30:21.907Z,85.32
2019-01-13T10:32:54.641Z,85.18
2019-01-13T10:35:16.366Z,84.96
2019-01-13T10:37:42.345Z,84.95
2019-01-13T10:40:11.993Z,84.92
2019-01-13T10:42:41.437Z,85.08
2019-01-13T10:45:10.553Z,85.04
2019-01-13T10:47:36.484Z,85.04
2019-01-13T10:50:06.160Z,85.39
2019-01-13T10:52:32.212Z,85.42
2019-01-13T10:54:58.302Z,85.13
2019-01-13T10:57:24.256Z,85.17
2019-01-13T10:59:50.333Z,85.37
2019-01-13T11:02:16.393Z,85.84
2019-01-13T11:04:43.269Z,86.07
2019-01-13T11:07:09.320Z,86.39
2019-01-13T11:09:35.266Z,86.49
2019-01-13T11:12:01.209Z,86.49
2019-01-13T11:14:27.204Z,86.47
2019-01-13T11:16:53.161Z,86.32
2019-01-13T11:19:19.317Z,86.03
2019-01-13T11:21:45.310Z,86.15
2019-01-13T11:24:11.267Z,86.19
2019-01-13T11:26:37.229Z,86.04
2019-01-13T11:29:03.217Z,86.12
2019-01-13T11:31:29.501Z,86.07
2019-01-13T11:33:55.440Z,85.94
2019-01-13T11:36:21.458Z,85.87
2019-01-13T11:38:47.691Z,85.60
2019-01-13T11:41:13.630Z,85.21
2019-01-13T11:43:39.607Z,85.42
2019-01-13T11:46:06.630Z,85.38
2019-01-13T11:48:33.082Z,85.55
2019-01-13T11:50:59.066Z,85.61
2019-01-13T11:53:25.812Z,84.94
2019-01-13T11:55:51.747Z,84.64
2019-01-13T11:58:18.775Z,84.74
2019-01-13T12:00:44.798Z,85.06
2019-01-13T12:03:16.823Z,85.33
2019-01-13T12:05:39.982Z,85.72
2019-01-13T12:08:06.340Z,85.92
2019-01-13T12:10:32.287Z,86.12
2019-01-13T12:13:02.839Z,86.29
2019-01-13T12:15:28.922Z,86.23
2019-01-13T12:17:54.858Z,86.44
2019-01-13T12:20:23.693Z,86.68
2019-01-13T12:22:49.835Z,86.63
2019-01-13T12:25:18.296Z,87.04
2019-01-13T12:27:44.776Z,87.10
2019-01-13T12:30:20.066Z,87.23
2019-01-13T12:32:46.055Z,87.32
2019-01-13T12:35:12.117Z,87.52
2019-01-13T12:37:38.672Z,87.63
2019-01-13T12:40:08.503Z,87.59
2019-01-13T12:42:36.207Z,87.65
2019-01-13T12:45:08.032Z,87.67
2019-01-13T12:47:34.975Z,87.45
2019-01-13T12:50:01.178Z,87.41
2019-01-13T12:52:27.166Z,87.42
2019-01-13T12:54:53.154Z,87.60
2019-01-13T12:57:19.131Z,87.51
2019-01-13T12:59:46.447Z,87.53
2019-01-13T13:02:12.659Z,87.42
2019-01-13T13:04:39.727Z,87.44
2019-01-13T13:07:08.591Z,87.33
2019-01-13T13:09:34.571Z,87.43
2019-01-13T13:12:02.982Z,87.42
2019-01-13T13:14:28.928Z,86.91
2019-01-13T13:16:54.930Z,86.96
2019-01-13T13:19:20.886Z,86.96
2019-01-13T13:21:47.155Z,86.95
2019-01-13T13:24:13.180Z,86.72
2019-01-13T13:26:40.329Z,87.15
2019-01-13T13:29:06.582Z,87.16
2019-01-13T13:31:32.582Z,87.29
2019-01-13T13:33:58.529Z,87.07
2019-01-13T13:36:25.993Z,87.01
2019-01-13T13:38:52.112Z,86.90
2019-01-13T13:41:18.772Z,87.05
2019-01-13T13:43:47.988Z,87.22
2019-01-13T13:46:14.018Z,87.40
2019-01-13T13:48:40.035Z,87.29
2019-01-13T13:51:06.178Z,87.16
2019-01-13T13:53:34.071Z,87.08
2019-01-13T13:56:00.006Z,86.93
2019-01-13T13:58:26.567Z,87.08
2019-01-13T14:00:52.575Z,87.06
2019-01-13T14:03:18.531Z,86.95
2019-01-13T14:05:44.475Z,87.04
2019-01-13T14:08:11.733Z,86.95
2019-01-13T14:10:37.780Z,86.90
2019-01-13T14:13:05.265Z,86.96
2019-01-13T14:15:31.255Z,86.96
2019-01-13T14:17:58.391Z,87.13
2019-01-13T14:20:24.440Z,87.23
2019-01-13T14:22:51.148Z,87.27
2019-01-13T14:25:17.198Z,87.40
2019-01-13T14:27:44.146Z,87.35
2019-01-13T14:30:14.751Z,87.42
2019-01-13T14:32:40.810Z,87.46
2019-01-13T14:35:06.965Z,87.45
2019-01-13T14:37:32.953Z,87.62
2019-01-13T14:39:59.066Z,87.70
2019-01-13T14:42:26.035Z,87.80
2019-01-13T14:44:52.034Z,87.81
2019-01-13T14:47:17.993Z,87.87
2019-01-13T14:49:44.919Z,87.99
2019-01-13T14:52:10.929Z,88.16
2019-01-13T14:54:37.165Z,88.21
2019-01-13T14:57:03.309Z,88.26
2019-01-13T14:59:29.285Z,88.39
2019-01-13T15:01:55.929Z,88.40
2019-01-13T15:04:21.885Z,88.58
2019-01-13T15:06:47.863Z,88.54
2019-01-13T15:09:13.849Z,88.59
2019-01-13T15:11:39.835Z,88.57
2019-01-13T15:14:05.908Z,88.59
2019-01-13T15:16:32.898Z,88.93
2019-01-13T15:19:00.224Z,88.94
2019-01-13T15:21:26.337Z,88.22
2019-01-13T15:23:52.492Z,88.02
2019-01-13T15:26:18.591Z,88.13
2019-01-13T15:28:44.608Z,88.31
2019-01-13T15:31:10.954Z,88.34
2019-01-13T15:33:36.919Z,88.80
2019-01-13T15:36:03.330Z,88.84
2019-01-13T15:38:29.276Z,88.82
2019-01-13T15:40:55.500Z,88.79
2019-01-13T15:43:21.928Z,88.57
2019-01-13T15:45:48.208Z,88.33
2019-01-13T15:48:14.158Z,88.21
2019-01-13T15:50:40.208Z,88.17
2019-01-13T15:53:06.162Z,88.21
2019-01-13T15:55:32.122Z,88.19
2019-01-13T15:57:58.197Z,88.29
2019-01-13T16:00:48.981Z,88.47
2019-01-13T16:03:14.980Z,88.59
2019-01-13T16:05:40.929Z,88.75
2019-01-13T16:08:07.143Z,89.14
2019-01-13T16:10:33.633Z,89.25
2019-01-13T16:12:59.649Z,88.82
2019-01-13T16:15:33.930Z,88.76
2019-01-13T16:17:55.097Z,88.91
2019-01-13T16:20:27.664Z,88.96
2019-01-13T16:22:54.052Z,88.92
2019-01-13T16:25:20.141Z,88.95
2019-01-13T16:27:46.102Z,89.02
2019-01-13T16:30:15.991Z,88.95
2019-01-13T16:32:41.978Z,88.92
2019-01-13T16:35:08.134Z,89.01
2019-01-13T16:37:34.482Z,89.27
2019-01-13T16:40:00.591Z,89.27
2019-01-13T16:42:26.575Z,89.36
2019-01-13T16:44:52.540Z,89.55
2019-01-13T16:47:18.526Z,89.76
2019-01-13T16:49:44.598Z,89.84
2019-01-13T16:52:11.670Z,89.98
2019-01-13T16:54:37.648Z,90.12
2019-01-13T16:57:03.596Z,90.22
2019-01-13T16:59:29.558Z,90.21
2019-01-13T17:01:55.586Z,90.25
2019-01-13T17:04:28.622Z,90.15
2019-01-13T17:06:49.401Z,90.17
2019-01-13T17:09:15.443Z,90.37
2019-01-13T17:11:42.237Z,90.56
2019-01-13T17:14:08.474Z,90.63
2019-01-13T17:16:34.461Z,90.69
2019-01-13T17:19:00.431Z,90.76
2019-01-13T17:21:26.389Z,90.68
2019-01-13T17:23:52.428Z,90.70
2019-01-13T17:26:18.515Z,90.72
2019-01-13T17:28:44.466Z,90.82
2019-01-13T17:31:10.991Z,90.93
2019-01-13T17:33:36.946Z,91.09
2019-01-13T17:36:03.030Z,91.28
2019-01-13T17:38:33.649Z,91.45
2019-01-13T17:40:59.958Z,91.56
2019-01-13T17:43:28.949Z,91.61
2019-01-13T17:45:54.987Z,91.72
2019-01-13T17:48:21.207Z,91.75
2019-01-13T17:50:47.177Z,91.88
2019-01-13T17:53:14.072Z,92.39
2019-01-13T17:55:40.221Z,92.45
2019-01-13T17:58:06.464Z,91.99
2019-01-13T18:00:36.891Z,91.91
2019-01-13T18:03:09.429Z,91.79
2019-01-13T18:05:35.389Z,91.75
2019-01-13T18:08:02.267Z,91.90
2019-01-13T18:10:29.051Z,92.01
2019-01-13T18:12:55.005Z,92.04
2019-01-13T18:15:21.172Z,91.86
2019-01-13T18:17:47.163Z,91.88
2019-01-13T18:20:20.866Z,91.75
2019-01-13T18:22:47.548Z,91.80
2019-01-13T18:25:13.729Z,91.22
2019-01-13T18:27:40.149Z,90.99
2019-01-13T18:30:18.330Z,91.08
2019-01-13T18:32:44.489Z,91.07
2019-01-13T18:35:13.470Z,91.02
2019-01-13T18:37:39.470Z,90.95
2019-01-13T18:40:13.757Z,91.02
2019-01-13T18:42:40.010Z,91.19
2019-01-13T18:45:08.011Z,91.34
2019-01-13T18:47:34.082Z,91.42
2019-01-13T18:50:00.100Z,91.45
2019-01-13T18:52:26.224Z,91.58
2019-01-13T18:54:52.248Z,91.52
2019-01-13T18:57:19.539Z,91.53
2019-01-13T18:59:46.986Z,91.56
2019-01-13T19:02:13.046Z,91.55
2019-01-13T19:04:39.394Z,91.68
2019-01-13T19:07:05.374Z,91.57
2019-01-13T19:09:31.331Z,91.70
2019-01-13T19:11:57.287Z,91.74
2019-01-13T19:14:28.393Z,91.63
2019-01-13T19:16:55.939Z,91.58
2019-01-13T19:19:21.890Z,91.60
2019-01-13T19:21:47.916Z,91.60
2019-01-13T19:24:14.092Z,91.53
2019-01-13T19:26:40.349Z,91.46
2019-01-13T19:29:06.352Z,91.18
2019-01-13T19:31:32.300Z,90.50
2019-01-13T19:33:58.420Z,90.01
2019-01-13T19:36:24.651Z,89.88
2019-01-13T19:38:50.614Z,89.96
2019-01-13T19:41:17.111Z,90.01
2019-01-13T19:43:43.104Z,89.45
2019-01-13T19:46:09.075Z,89.47
2019-01-13T19:48:35.049Z,89.54
2019-01-13T19:51:01.035Z,89.53
2019-01-13T19:53:26.995Z,89.64
2019-01-13T19:55:55.418Z,89.73
2019-01-13T19:58:22.823Z,89.78
2019-01-13T20:00:48.892Z,89.89
2019-01-13T20:03:15.757Z,89.96
2019-01-13T20:05:41.769Z,90.04
2019-01-13T20:08:08.190Z,90.15
2019-01-13T20:10:36.096Z,90.25
2019-01-13T20:13:02.121Z,90.36
2019-01-13T20:15:28.706Z,90.38
2019-01-13T20:17:54.963Z,90.47
2019-01-13T20:20:22.427Z,90.55
2019-01-13T20:22:48.826Z,90.56
2019-01-13T20:25:16.465Z,90.68
2019-01-13T20:27:42.864Z,90.81
2019-01-13T20:30:15.394Z,91.04
2019-01-13T20:32:41.658Z,91.22
2019-01-13T20:35:07.766Z,91.11
2019-01-13T20:37:33.711Z,91.07
2019-01-13T20:39:59.678Z,91.22
2019-01-13T20:42:25.905Z,91.41
2019-01-13T20:44:51.860Z,90.95
2019-01-13T20:47:19.725Z,90.89
2019-01-13T20:49:45.724Z,91.02
2019-01-13T20:52:11.675Z,91.07
2019-01-13T20:54:38.927Z,90.80
2019-01-13T20:57:05.918Z,90.88
2019-01-13T20:59:31.921Z,90.91
2019-01-13T21:01:59.003Z,90.84
2019-01-13T21:04:25.053Z,90.88
2019-01-13T21:06:51.962Z,90.64
2019-01-13T21:09:19.835Z,90.82
2019-01-13T21:11:45.999Z,90.67
2019-01-13T21:14:12.945Z,90.25
2019-01-13T21:16:38.907Z,90.11
2019-01-13T21:19:06.296Z,90.12
2019-01-13T21:21:32.598Z,90.26
2019-01-13T21:23:59.811Z,90.44
2019-01-13T21:26:25.888Z,90.55
2019-01-13T21:28:51.851Z,90.65
2019-01-13T21:31:17.806Z,90.47
2019-01-13T21:33:44.621Z,90.36
2019-01-13T21:36:13.030Z,90.33
2019-01-13T21:38:38.983Z,90.47
2019-01-13T21:41:05.180Z,90.47
2019-01-13T21:43:31.146Z,90.52
2019-01-13T21:45:57.103Z,90.56
2019-01-13T21:48:23.140Z,90.51
2019-01-13T21:50:49.732Z,90.48
2019-01-13T21:53:16.645Z,90.51
2019-01-13T21:55:42.627Z,90.94
2019-01-13T21:58:08.642Z,90.02
2019-01-13T22:00:34.806Z,89.84
2019-01-13T22:03:01.519Z,89.76
2019-01-13T22:05:27.581Z,89.90
2019-01-13T22:07:53.525Z,90.01
2019-01-13T22:10:21.487Z,90.03
2019-01-13T22:12:47.902Z,90.19
2019-01-13T22:15:15.462Z,90.17
2019-01-13T22:17:41.627Z,90.24
2019-01-13T22:20:10.683Z,90.30
2019-01-13T22:22:36.827Z,90.21
2019-01-13T22:25:05.035Z,90.29
2019-01-13T22:27:31.176Z,90.22
2019-01-13T22:29:57.189Z,90.22
2019-01-13T22:32:23.192Z,90.26
2019-01-13T22:34:49.338Z,90.30
2019-01-13T22:37:15.451Z,90.44
2019-01-13T22:39:41.457Z,90.71
2019-01-13T22:42:07.409Z,90.28
2019-01-13T22:44:33.350Z,89.87
2019-01-13T22:46:59.324Z,89.56
2019-01-13T22:49:25.275Z,89.21
2019-01-13T22:51:51.227Z,89.08
2019-01-13T22:54:17.361Z,89.03
2019-01-13T22:56:43.312Z,89.21
2019-01-13T22:59:09.341Z,89.51
2019-01-13T23:01:36.924Z,89.51
2019-01-13T23:04:03.177Z,89.77
2019-01-13T23:06:29.429Z,89.91
2019-01-13T23:08:55.439Z,90.17
2019-01-13T23:11:21.390Z,90.44
2019-01-13T23:13:47.340Z,90.68
2019-01-13T23:16:13.956Z,90.71
2019-01-13T23:18:39.961Z,90.77
2019-01-13T23:21:06.503Z,90.75
2019-01-13T23:23:32.497Z,90.96
2019-01-13T23:25:58.632Z,91.11
2019-01-13T23:28:25.053Z,91.12
2019-01-13T23:30:51.042Z,91.21
2019-01-13T23:33:16.988Z,91.32
2019-01-13T23:35:43.349Z,91.32
2019-01-13T23:38:09.773Z,91.32
2019-01-13T23:40:38.586Z,91.37
2019-01-13T23:43:04.543Z,91.10
2019-01-13T23:45:31.403Z,91.00
2019-01-13T23:47:59.294Z,91.04
2019-01-13T23:50:25.237Z,91.05
2019-01-13T23:52:51.911Z,90.97
2019-01-13T23:55:18.705Z,90.99
2019-01-13T23:57:44.764Z,90.80
